Time,TemperatureF,DewpointF,PressureIn,WindDirection,WindDirectionDegrees,WindSpeedMPH,WindSpeedGustMPH,Humidity,HourlyPrecipIn,Conditions,Clouds,dailyrainin,SoftwareType,DateUTC
2013-01-26 00:04:00,50.6,50.6,30.06,SSW,203,0.0,0.0,100,-99.99,,,-99.99,WSDL version 420,2013-01-26 08:04:00,
2013-01-26 00:09:00,50.5,50.5,30.06,SSW,203,0.0,0.0,100,-99.99,,,-99.99,WSDL version 420,2013-01-26 08:09:00,
2013-01-26 00:14:00,50.5,50.5,30.06,SSW,203,0.0,0.0,100,-99.99,,,-99.99,WSDL version 420,2013-01-26 08:14:00,
2013-01-26 00:19:00,50.5,50.5,30.06,SSW,203,0.0,0.0,100,-99.99,,,-99.99,WSDL version 420,2013-01-26 08:19:00,
2013-01-26 00:24:00,50.5,50.5,30.06,SSW,203,0.0,0.0,100,-99.99,,,-99.99,WSDL version 420,2013-01-26 08:24:00,
2013-01-26 00:29:00,50.6,50.6,30.06,SSW,203,0.0,0.0,100,-99.99,,,-99.99,WSDL version 420,2013-01-26 08:29:00,
2013-01-26 00:34:00,50.7,50.7,30.06,SSW,203,0.0,0.0,100,-99.99,,,-99.99,WSDL version 420,2013-01-26 08:34:00,
2013-01-26 00:39:00,50.7,50.7,30.06,SSW,203,0.0,0.0,100,-99.99,,,-99.99,WSDL version 420,2013-01-26 08:39:00,
2013-01-26 00:44:00,50.9,50.9,30.06,SSW,203,0.0,0.0,100,-99.99,,,-99.99,WSDL version 420,2013-01-26 08:44:00,
2013-01-26 00:49:00,50.9,50.9,30.06,SSW,203,0.0,0.0,100,-99.99,,,-99.99,WSDL version 420,2013-01-26 08:49:00,
2013-01-26 00:54:00,50.9,50.9,30.06,SSW,203,0.0,0.0,100,-99.99,,,-99.99,WSDL version 420,2013-01-26 08:54:00,
2013-01-26 00:59:00,50.9,50.9,30.06,SSW,203,0.0,0.0,100,-99.99,,,-99.99,WSDL version 420,2013-01-26 08:59:00,
2013-01-26 01:04:00,50.9,50.9,30.06,SSW,203,0.0,0.0,100,-99.99,,,-99.99,WSDL version 420,2013-01-26 09:04:00,
2013-01-26 01:09:00,50.8,50.8,30.06,SSW,203,0.0,0.0,100,-99.99,,,-99.99,WSDL version 420,2013-01-26 09:09:00,
2013-01-26 01:14:00,50.7,50.7,30.06,SSW,203,0.0,0.0,100,-99.99,,,-99.99,WSDL version 420,2013-01-26 09:14:00,
2013-01-26 01:19:00,50.7,50.7,30.06,SSW,203,0.0,0.0,100,-99.99,,,-99.99,WSDL version 420,2013-01-26 09:19:00,
2013-01-26 01:24:00,50.7,50.7,30.06,SSW,203,0.0,0.0,100,-99.99,,,-99.99,WSDL version 420,2013-01-26 09:24:00,
2013-01-26 01:29:00,50.7,50.7,30.06,SSW,203,0.0,2.7,100,-99.99,,,-99.99,WSDL version 420,2013-01-26 09:29:00,
2013-01-26 01:34:00,50.7,50.7,30.06,SSW,203,0.0,2.7,100,-99.99,,,-99.99,WSDL version 420,2013-01-26 09:34:00,
2013-01-26 01:39:00,50.6,50.6,30.06,SSW,203,0.0,2.7,100,-99.99,,,-99.99,WSDL version 420,2013-01-26 09:39:00,
2013-01-26 01:44:00,50.5,50.5,30.03,SSW,203,0.0,0.0,100,-99.99,,,-99.99,WSDL version 420,2013-01-26 09:44:00,
2013-01-26 01:49:00,50.5,50.5,30.03,SSW,203,0.0,0.0,100,-99.99,,,-99.99,WSDL version 420,2013-01-26 09:49:00,
2013-01-26 01:54:00,50.5,50.5,30.03,SSW,203,0.0,0.0,100,-99.99,,,-99.99,WSDL version 420,2013-01-26 09:54:00,
2013-01-26 02:00:00,50.5,50.5,30.03,SSW,203,0.0,0.0,100,-99.99,,,-99.99,WSDL version 420,2013-01-26 10:00:00,
2013-01-26 02:05:00,50.4,50.4,30.03,SSW,203,0.0,0.0,100,-99.99,,,-99.99,WSDL version 420,2013-01-26 10:05:00,
2013-01-26 02:10:00,50.4,50.4,30.03,SSW,203,0.0,0.0,100,-99.99,,,-99.99,WSDL version 420,2013-01-26 10:10:00,
2013-01-26 02:15:00,50.4,50.4,30.03,SSW,203,0.0,0.0,100,-99.99,,,-99.99,WSDL version 420,2013-01-26 10:15:00,
2013-01-26 02:20:00,50.5,50.5,30.03,SSW,203,0.0,0.0,100,-99.99,,,-99.99,WSDL version 420,2013-01-26 10:20:00,
2013-01-26 02:25:00,50.4,50.4,30.03,SSW,203,0.0,0.0,100,-99.99,,,-99.99,WSDL version 420,2013-01-26 10:25:00,
2013-01-26 02:30:00,50.5,50.5,30.03,SSW,203,0.0,0.0,100,-99.99,,,-99.99,WSDL version 420,2013-01-26 10:30:00,
2013-01-26 02:35:00,50.4,50.4,30.03,SSW,203,0.0,0.0,100,-99.99,,,-99.99,WSDL version 420,2013-01-26 10:35:00,
2013-01-26 02:41:00,50.4,50.4,30.03,SSW,203,0.0,0.0,100,-99.99,,,-99.99,WSDL version 420,2013-01-26 10:41:00,
2013-01-26 02:46:00,50.5,50.4,30.03,SSW,203,0.0,0.0,100,-99.99,,,-99.99,WSDL version 420,2013-01-26 10:46:00,
2013-01-26 02:51:00,50.5,50.5,30.03,SSW,203,0.0,0.0,100,-99.99,,,-99.99,WSDL version 420,2013-01-26 10:51:00,
2013-01-26 02:56:00,50.5,50.5,30.03,SSW,203,0.0,0.0,100,-99.99,,,-99.99,WSDL version 420,2013-01-26 10:56:00,
2013-01-26 03:01:00,50.6,50.6,30.03,SSW,203,0.0,2.2,100,-99.99,,,-99.99,WSDL version 420,2013-01-26 11:01:00,
2013-01-26 03:06:00,50.5,50.5,30.03,SSW,203,0.0,2.2,100,-99.99,,,-99.99,WSDL version 420,2013-01-26 11:06:00,
2013-01-26 03:11:00,50.5,50.5,30.03,SSW,203,0.0,2.7,100,-99.99,,,-99.99,WSDL version 420,2013-01-26 11:11:00,
2013-01-26 03:16:00,50.5,50.5,30.03,SSW,203,0.0,2.7,100,-99.99,,,-99.99,WSDL version 420,2013-01-26 11:16:00,
2013-01-26 03:21:00,50.5,50.5,30.03,SSW,203,0.0,0.0,100,-99.99,,,-99.99,WSDL version 420,2013-01-26 11:21:00,
2013-01-26 03:26:00,50.5,50.5,30.03,SSW,203,0.0,0.0,100,-99.99,,,-99.99,WSDL version 420,2013-01-26 11:26:00,
2013-01-26 03:31:00,50.5,50.5,30.00,SSW,203,0.0,0.0,100,-99.99,,,-99.99,WSDL version 420,2013-01-26 11:31:00,
2013-01-26 03:36:00,50.5,50.5,30.00,SSW,203,0.0,0.0,100,-99.99,,,-99.99,WSDL version 420,2013-01-26 11:36:00,
2013-01-26 03:41:00,50.4,50.4,30.00,SSW,203,0.0,0.0,100,-99.99,,,-99.99,WSDL version 420,2013-01-26 11:41:00,
2013-01-26 03:46:00,50.4,50.4,30.03,SSW,203,0.0,0.0,100,-99.99,,,-99.99,WSDL version 420,2013-01-26 11:46:00,
2013-01-26 03:51:00,50.5,50.5,30.03,SSW,203,0.0,0.0,100,-99.99,,,-99.99,WSDL version 420,2013-01-26 11:51:00,
2013-01-26 03:56:00,50.5,50.5,30.03,SSW,203,0.0,0.0,100,-99.99,,,-99.99,WSDL version 420,2013-01-26 11:56:00,
2013-01-26 04:06:00,-999.0,-99.9,30.00,SSW,203,0.0,0.0,-999,-99.99,,,-99.99,WSDL version 420,2013-01-26 12:06:00,
2013-01-26 04:11:00,50.4,50.4,30.00,SSW,203,0.0,0.0,100,-99.99,,,-99.99,WSDL version 420,2013-01-26 12:11:00,
2013-01-26 04:16:00,50.4,50.4,30.00,SSW,203,0.0,0.0,100,-99.99,,,-99.99,WSDL version 420,2013-01-26 12:16:00,
2013-01-26 04:21:00,50.4,50.4,30.00,SSW,203,0.0,0.0,100,-99.99,,,-99.99,WSDL version 420,2013-01-26 12:21:00,
2013-01-26 04:27:00,50.4,50.4,30.00,SSW,203,0.0,0.0,100,-99.99,,,-99.99,WSDL version 420,2013-01-26 12:27:00,
2013-01-26 04:32:00,50.3,50.3,30.00,SSW,203,0.0,0.0,100,-99.99,,,-99.99,WSDL version 420,2013-01-26 12:32:00,
2013-01-26 04:37:00,50.2,50.2,30.00,SSW,203,0.0,2.2,100,-99.99,,,-99.99,WSDL version 420,2013-01-26 12:37:00,
2013-01-26 04:42:00,50.2,50.2,30.00,SSW,203,0.0,2.2,100,-99.99,,,-99.99,WSDL version 420,2013-01-26 12:42:00,
2013-01-26 04:47:00,50.0,50.0,30.00,SSW,203,0.0,0.0,100,-99.99,,,-99.99,WSDL version 420,2013-01-26 12:47:00,
2013-01-26 04:52:00,50.0,50.0,30.00,SSW,203,0.0,0.0,100,-99.99,,,-99.99,WSDL version 420,2013-01-26 12:52:00,
2013-01-26 04:57:00,49.9,49.9,30.00,SSW,203,0.0,0.0,100,-99.99,,,-99.99,WSDL version 420,2013-01-26 12:57:00,
2013-01-26 05:02:00,49.8,49.8,30.00,SSW,203,0.0,0.0,100,-99.99,,,-99.99,WSDL version 420,2013-01-26 13:02:00,
2013-01-26 05:08:00,49.8,49.8,30.00,SSW,203,0.0,0.0,100,-99.99,,,-99.99,WSDL version 420,2013-01-26 13:08:00,
2013-01-26 05:13:00,49.7,49.7,30.00,SSW,203,0.0,0.0,100,-99.99,,,-99.99,WSDL version 420,2013-01-26 13:13:00,
2013-01-26 05:18:00,49.6,49.6,30.00,SSW,203,0.0,0.0,100,-99.99,,,-99.99,WSDL version 420,2013-01-26 13:18:00,
2013-01-26 05:23:00,49.6,49.6,30.00,SSW,203,0.0,0.0,100,-99.99,,,-99.99,WSDL version 420,2013-01-26 13:23:00,
2013-01-26 05:28:00,49.6,49.6,30.00,SSW,203,0.0,0.0,100,-99.99,,,-99.99,WSDL version 420,2013-01-26 13:28:00,
2013-01-26 05:33:00,49.6,49.6,30.00,SSW,203,0.0,0.0,100,-99.99,,,-99.99,WSDL version 420,2013-01-26 13:33:00,
2013-01-26 05:38:00,49.6,49.6,30.00,SSW,203,0.0,0.0,100,-99.99,,,-99.99,WSDL version 420,2013-01-26 13:38:00,
2013-01-26 05:43:00,49.6,49.6,30.00,SSW,203,0.0,0.0,100,-99.99,,,-99.99,WSDL version 420,2013-01-26 13:43:00,
2013-01-26 05:48:00,49.5,49.5,29.97,SSW,203,0.0,0.0,100,-99.99,,,-99.99,WSDL version 420,2013-01-26 13:48:00,
2013-01-26 05:53:00,49.4,49.4,29.97,SSW,203,0.0,0.0,100,-99.99,,,-99.99,WSDL version 420,2013-01-26 13:53:00,
2013-01-26 05:58:00,49.2,49.2,29.97,West,270,0.0,0.0,100,-99.99,,,-99.99,WSDL version 420,2013-01-26 13:58:00,
2013-01-26 06:03:00,49.0,49.0,29.97,WNW,293,0.0,0.0,100,-99.99,,,-99.99,WSDL version 420,2013-01-26 14:03:00,
2013-01-26 06:08:00,48.8,48.8,29.97,WNW,293,0.0,0.0,100,-99.99,,,-99.99,WSDL version 420,2013-01-26 14:08:00,
2013-01-26 06:14:00,48.7,48.7,29.97,WNW,293,0.0,2.7,100,-99.99,,,-99.99,WSDL version 420,2013-01-26 14:14:00,
2013-01-26 06:19:00,48.7,48.7,29.97,WNW,293,0.0,2.7,100,-99.99,,,-99.99,WSDL version 420,2013-01-26 14:19:00,
2013-01-26 06:24:00,48.7,48.7,29.97,WNW,293,2.3,3.1,100,-99.99,,,-99.99,WSDL version 420,2013-01-26 14:24:00,
2013-01-26 06:29:00,48.6,48.6,29.97,WNW,293,1.4,4.0,100,-99.99,,,-99.99,WSDL version 420,2013-01-26 14:29:00,
2013-01-26 06:34:00,48.6,48.6,29.97,WNW,293,0.5,4.0,100,-99.99,,,-99.99,WSDL version 420,2013-01-26 14:34:00,
2013-01-26 06:39:00,48.6,48.6,29.97,WNW,293,0.0,2.7,100,-99.99,,,-99.99,WSDL version 420,2013-01-26 14:39:00,
2013-01-26 06:44:00,48.6,48.6,29.97,WNW,293,2.4,3.6,100,-99.99,,,-99.99,WSDL version 420,2013-01-26 14:44:00,
2013-01-26 06:49:00,48.6,48.6,29.97,WNW,293,2.8,3.6,100,-99.99,,,-99.99,WSDL version 420,2013-01-26 14:49:00,
2013-01-26 06:54:00,48.5,48.5,29.97,WNW,290,4.3,5.4,100,-99.99,,,-99.99,WSDL version 420,2013-01-26 14:54:00,
2013-01-26 06:59:00,47.7,47.7,30.00,WNW,293,3.8,5.4,100,-99.99,,,-99.99,WSDL version 420,2013-01-26 14:59:00,
2013-01-26 07:04:00,47.2,47.2,30.00,WNW,293,2.7,5.4,100,-99.99,,,-99.99,WSDL version 420,2013-01-26 15:04:00,
2013-01-26 07:09:00,46.8,46.8,30.00,WNW,293,3.1,4.0,100,-99.99,,,-99.99,WSDL version 420,2013-01-26 15:09:00,
2013-01-26 07:14:00,46.6,46.6,29.97,WNW,293,2.8,4.0,100,-99.99,,,-99.99,WSDL version 420,2013-01-26 15:14:00,
2013-01-26 07:19:00,46.6,46.5,29.97,WNW,293,0.0,4.0,100,-99.99,,,-99.99,WSDL version 420,2013-01-26 15:19:00,
2013-01-26 07:24:00,46.4,46.4,29.97,WNW,293,0.0,3.1,100,-99.99,,,-99.99,WSDL version 420,2013-01-26 15:24:00,
2013-01-26 07:29:00,46.4,46.4,29.97,WNW,293,0.0,3.1,100,-99.99,,,-99.99,WSDL version 420,2013-01-26 15:29:00,
2013-01-26 07:34:00,46.5,46.5,29.97,WNW,293,0.0,2.7,100,-99.99,,,-99.99,WSDL version 420,2013-01-26 15:34:00,
2013-01-26 07:39:00,46.6,46.6,29.97,WNW,293,0.0,2.2,100,-99.99,,,-99.99,WSDL version 420,2013-01-26 15:39:00,
2013-01-26 07:44:00,46.6,46.6,29.97,WNW,293,0.0,2.7,100,-99.99,,,-99.99,WSDL version 420,2013-01-26 15:44:00,
2013-01-26 07:49:00,46.7,46.7,29.97,WNW,293,0.0,2.7,100,-99.99,,,-99.99,WSDL version 420,2013-01-26 15:49:00,
2013-01-26 07:54:00,46.9,46.9,29.97,WNW,293,0.0,0.0,100,-99.99,,,-99.99,WSDL version 420,2013-01-26 15:54:00,
2013-01-26 07:59:00,47.1,47.1,29.97,WNW,293,0.0,0.0,100,-99.99,,,-99.99,WSDL version 420,2013-01-26 15:59:00,
2013-01-26 08:04:00,47.3,47.3,29.97,WNW,293,0.0,0.0,100,-99.99,,,-99.99,WSDL version 420,2013-01-26 16:04:00,
2013-01-26 08:09:00,47.4,47.4,29.97,WNW,293,0.0,0.0,100,-99.99,,,-99.99,WSDL version 420,2013-01-26 16:09:00,
2013-01-26 08:14:00,47.5,47.5,29.97,WNW,293,0.0,0.0,100,-99.99,,,-99.99,WSDL version 420,2013-01-26 16:14:00,
2013-01-26 08:19:00,47.7,47.7,29.97,WNW,293,0.0,0.0,100,-99.99,,,-99.99,WSDL version 420,2013-01-26 16:19:00,
2013-01-26 08:24:00,47.8,47.8,29.97,WNW,293,0.0,0.0,100,-99.99,,,-99.99,WSDL version 420,2013-01-26 16:24:00,
2013-01-26 08:29:00,48.1,48.1,30.00,WNW,293,0.0,0.0,100,-99.99,,,-99.99,WSDL version 420,2013-01-26 16:29:00,
2013-01-26 08:34:00,48.5,48.5,30.00,WNW,293,0.0,0.0,100,-99.99,,,-99.99,WSDL version 420,2013-01-26 16:34:00,
2013-01-26 08:39:00,48.7,48.6,30.00,WNW,293,0.0,0.0,100,-99.99,,,-99.99,WSDL version 420,2013-01-26 16:39:00,
2013-01-26 08:44:00,48.7,48.7,29.97,WNW,293,0.0,0.0,100,-99.99,,,-99.99,WSDL version 420,2013-01-26 16:44:00,
2013-01-26 08:49:00,48.7,48.7,29.97,WNW,293,0.0,0.0,100,-99.99,,,-99.99,WSDL version 420,2013-01-26 16:49:00,
2013-01-26 08:54:00,48.9,48.9,29.97,WNW,293,0.0,0.0,100,-99.99,,,-99.99,WSDL version 420,2013-01-26 16:54:00,
2013-01-26 08:59:00,49.2,49.2,30.00,WNW,293,0.0,0.0,100,-99.99,,,-99.99,WSDL version 420,2013-01-26 16:59:00,
2013-01-26 09:04:00,49.5,49.5,30.00,WNW,293,0.0,0.0,100,-99.99,,,-99.99,WSDL version 420,2013-01-26 17:04:00,
2013-01-26 09:09:00,49.8,49.8,30.00,WNW,293,0.0,0.0,100,-99.99,,,-99.99,WSDL version 420,2013-01-26 17:09:00,
2013-01-26 09:14:00,50.2,50.2,30.00,WNW,293,0.0,0.0,100,-99.99,,,-99.99,WSDL version 420,2013-01-26 17:14:00,
2013-01-26 09:19:00,50.4,50.4,30.00,WNW,293,0.0,0.0,100,-99.99,,,-99.99,WSDL version 420,2013-01-26 17:19:00,
2013-01-26 09:24:00,50.5,50.5,30.00,WNW,293,0.0,0.0,100,-99.99,,,-99.99,WSDL version 420,2013-01-26 17:24:00,
2013-01-26 09:29:00,50.9,50.9,30.00,WNW,293,0.0,0.0,100,-99.99,,,-99.99,WSDL version 420,2013-01-26 17:29:00,
2013-01-26 09:34:00,51.2,51.2,30.00,WNW,293,0.0,0.0,100,-99.99,,,-99.99,WSDL version 420,2013-01-26 17:34:00,
2013-01-26 09:39:00,51.2,51.2,30.00,WNW,293,0.0,0.0,100,-99.99,,,-99.99,WSDL version 420,2013-01-26 17:39:00,
2013-01-26 09:44:00,51.1,51.1,30.00,WNW,293,0.0,0.0,100,-99.99,,,-99.99,WSDL version 420,2013-01-26 17:44:00,
2013-01-26 09:49:00,51.0,51.0,30.00,WNW,293,0.0,0.0,100,-99.99,,,-99.99,WSDL version 420,2013-01-26 17:49:00,
2013-01-26 09:54:00,51.1,51.1,30.00,WNW,293,0.0,0.0,100,-99.99,,,-99.99,WSDL version 420,2013-01-26 17:54:00,
2013-01-26 09:59:00,51.2,51.2,30.00,WNW,293,0.0,2.7,100,-99.99,,,-99.99,WSDL version 420,2013-01-26 17:59:00,
2013-01-26 10:04:00,51.3,51.3,30.00,WNW,293,0.0,2.7,100,-99.99,,,-99.99,WSDL version 420,2013-01-26 18:04:00,
2013-01-26 10:09:00,52.4,52.4,30.00,WSW,248,0.0,3.1,100,-99.99,,,-99.99,WSDL version 420,2013-01-26 18:09:00,
2013-01-26 10:14:00,53.1,53.1,30.00,WSW,248,0.7,3.6,100,-99.99,,,-99.99,WSDL version 420,2013-01-26 18:14:00,
2013-01-26 10:19:00,53.0,53.0,30.00,SW,225,0.3,3.6,100,-99.99,,,-99.99,WSDL version 420,2013-01-26 18:19:00,
2013-01-26 10:24:00,53.8,53.7,30.00,South,186,0.8,3.6,100,-99.99,,,-99.99,WSDL version 420,2013-01-26 18:24:00,
2013-01-26 10:29:00,54.1,54.1,30.00,SSW,203,2.8,5.4,100,-99.99,,,-99.99,WSDL version 420,2013-01-26 18:29:00,
2013-01-26 10:34:00,54.5,54.5,30.00,SSW,203,2.3,5.4,100,-99.99,,,-99.99,WSDL version 420,2013-01-26 18:34:00,
2013-01-26 10:39:00,54.5,54.5,30.00,SW,230,1.8,4.9,100,-99.99,,,-99.99,WSDL version 420,2013-01-26 18:39:00,
2013-01-26 10:44:00,54.6,54.6,30.00,SSW,203,3.2,4.9,100,-99.99,,,-99.99,WSDL version 420,2013-01-26 18:44:00,
2013-01-26 10:49:00,54.4,54.4,30.00,SW,218,2.9,5.4,100,-99.99,,,-99.99,WSDL version 420,2013-01-26 18:49:00,
2013-01-26 10:54:00,54.4,54.3,30.00,SSW,203,3.3,5.4,100,-99.99,,,-99.99,WSDL version 420,2013-01-26 18:54:00,
2013-01-26 10:59:00,54.6,54.6,30.00,SSW,203,0.9,5.4,100,-99.99,,,-99.99,WSDL version 420,2013-01-26 18:59:00,
2013-01-26 11:04:00,54.8,54.8,30.00,SSW,203,0.6,4.0,100,-99.99,,,-99.99,WSDL version 420,2013-01-26 19:04:00,
2013-01-26 11:09:00,55.2,55.2,30.00,SSW,203,0.0,4.0,100,-99.99,,,-99.99,WSDL version 420,2013-01-26 19:09:00,
2013-01-26 11:14:00,55.3,55.3,29.97,SSW,203,0.0,4.0,100,-99.99,,,-99.99,WSDL version 420,2013-01-26 19:14:00,
2013-01-26 11:19:00,55.8,55.8,29.97,SSW,203,0.0,2.7,100,-99.99,,,-99.99,WSDL version 420,2013-01-26 19:19:00,
2013-01-26 11:24:00,56.2,56.2,29.97,SSE,150,0.2,2.7,100,-99.99,,,-99.99,WSDL version 420,2013-01-26 19:24:00,
2013-01-26 11:29:00,56.4,55.7,29.97,SSE,158,0.3,3.6,96,-99.99,,,-99.99,WSDL version 420,2013-01-26 19:29:00,
2013-01-26 11:34:00,57.0,54.7,29.97,SE,145,3.2,5.8,89,-99.99,,,-99.99,WSDL version 420,2013-01-26 19:34:00,
2013-01-26 11:39:00,57.2,52.4,29.97,SSE,158,2.9,5.8,82,-99.99,,,-99.99,WSDL version 420,2013-01-26 19:39:00,
2013-01-26 11:44:00,57.4,51.2,29.97,SSE,158,3.1,5.8,78,-99.99,,,-99.99,WSDL version 420,2013-01-26 19:44:00,
2013-01-26 11:49:00,57.5,50.7,29.97,SSW,198,3.8,5.8,77,-99.99,,,-99.99,WSDL version 420,2013-01-26 19:49:00,
2013-01-26 11:54:00,58.0,50.9,29.97,South,191,3.6,5.8,76,-99.99,,,-99.99,WSDL version 420,2013-01-26 19:54:00,
2013-01-26 11:59:00,58.3,50.5,29.97,SSW,203,0.0,5.8,75,-99.99,,,-99.99,WSDL version 420,2013-01-26 19:59:00,
2013-01-26 12:04:00,59.3,50.6,29.97,SSW,208,3.1,4.9,71,-99.99,,,-99.99,WSDL version 420,2013-01-26 20:04:00,
2013-01-26 12:09:00,59.7,50.0,29.97,South,180,4.7,6.7,70,-99.99,,,-99.99,WSDL version 420,2013-01-26 20:09:00,
2013-01-26 12:14:00,59.2,49.4,29.94,SSE,158,4.4,6.7,70,-99.99,,,-99.99,WSDL version 420,2013-01-26 20:14:00,
2013-01-26 12:19:00,59.5,49.8,29.94,SSW,203,2.2,6.7,69,-99.99,,,-99.99,WSDL version 420,2013-01-26 20:19:00,
2013-01-26 12:24:00,60.4,50.0,29.94,SW,218,3.9,6.3,67,-99.99,,,-99.99,WSDL version 420,2013-01-26 20:24:00,
2013-01-26 12:29:00,60.3,49.3,29.94,SW,233,4.1,6.3,67,-99.99,,,-99.99,WSDL version 420,2013-01-26 20:29:00,
2013-01-26 12:34:00,60.3,49.6,29.94,SSW,213,2.9,5.8,68,-99.99,,,-99.99,WSDL version 420,2013-01-26 20:34:00,
2013-01-26 12:39:00,60.7,50.0,29.94,SW,217,4.3,7.2,67,-99.99,,,-99.99,WSDL version 420,2013-01-26 20:39:00,
2013-01-26 12:44:00,60.9,49.0,29.94,South,170,3.6,7.2,64,-99.99,,,-99.99,WSDL version 420,2013-01-26 20:44:00,
2013-01-26 12:49:00,61.6,49.7,29.94,West,273,3.4,6.3,66,-99.99,,,-99.99,WSDL version 420,2013-01-26 20:49:00,
2013-01-26 12:54:00,61.7,49.7,29.94,SW,217,3.5,6.3,63,-99.99,,,-99.99,WSDL version 420,2013-01-26 20:54:00,
2013-01-26 12:59:00,61.5,49.5,29.94,WNW,298,5.6,8.1,67,-99.99,,,-99.99,WSDL version 420,2013-01-26 20:59:00,
2013-01-26 13:04:00,60.9,50.3,29.94,NW,312,5.0,8.1,69,-99.99,,,-99.99,WSDL version 420,2013-01-26 21:04:00,
2013-01-26 13:09:00,60.7,49.6,29.94,NNW,335,5.2,7.6,66,-99.99,,,-99.99,WSDL version 420,2013-01-26 21:09:00,
2013-01-26 13:14:00,60.9,49.8,29.94,NW,318,4.2,7.6,66,-99.99,,,-99.99,WSDL version 420,2013-01-26 21:14:00,
2013-01-26 13:19:00,60.7,49.5,29.94,NW,310,3.5,6.3,67,-99.99,,,-99.99,WSDL version 420,2013-01-26 21:19:00,
2013-01-26 13:24:00,60.2,48.5,29.94,NNW,343,4.3,5.8,64,-99.99,,,-99.99,WSDL version 420,2013-01-26 21:24:00,
2013-01-26 13:29:00,60.3,48.5,29.91,NNW,338,1.9,6.3,64,-99.99,,,-99.99,WSDL version 420,2013-01-26 21:29:00,
2013-01-26 13:34:00,61.1,48.1,29.91,NNW,340,0.0,6.3,61,-99.99,,,-99.99,WSDL version 420,2013-01-26 21:34:00,
2013-01-26 13:39:00,61.8,47.6,29.91,ENE,65,1.3,3.6,58,-99.99,,,-99.99,WSDL version 420,2013-01-26 21:39:00,
2013-01-26 13:44:00,61.3,47.4,29.91,NNE,23,1.9,4.9,62,-99.99,,,-99.99,WSDL version 420,2013-01-26 21:44:00,
2013-01-26 13:49:00,61.5,47.9,29.91,NNE,23,0.8,4.9,60,-99.99,,,-99.99,WSDL version 420,2013-01-26 21:49:00,
2013-01-26 13:54:00,61.4,47.5,29.91,NE,45,2.7,4.0,59,-99.99,,,-99.99,WSDL version 420,2013-01-26 21:54:00,
2013-01-26 13:59:00,61.5,47.8,29.91,NE,45,1.5,4.0,61,-99.99,,,-99.99,WSDL version 420,2013-01-26 21:59:00,
2013-01-26 14:04:00,62.0,47.8,29.91,NE,45,0.0,3.1,58,-99.99,,,-99.99,WSDL version 420,2013-01-26 22:04:00,
2013-01-26 14:09:00,62.4,48.2,29.91,NE,45,0.7,3.1,61,-99.99,,,-99.99,WSDL version 420,2013-01-26 22:09:00,
2013-01-26 14:14:00,62.2,49.0,29.91,NNE,23,0.0,4.5,62,-99.99,,,-99.99,WSDL version 420,2013-01-26 22:14:00,
2013-01-26 14:19:00,62.2,47.8,29.91,NNE,23,2.4,4.9,59,-99.99,,,-99.99,WSDL version 420,2013-01-26 22:19:00,
2013-01-26 14:24:00,62.2,47.7,29.91,NNE,23,2.6,4.9,59,-99.99,,,-99.99,WSDL version 420,2013-01-26 22:24:00,
2013-01-26 14:29:00,62.4,48.0,29.91,NNE,23,0.3,4.5,59,-99.99,,,-99.99,WSDL version 420,2013-01-26 22:29:00,
2013-01-26 14:34:00,63.8,48.5,29.91,NNE,23,0.0,3.6,57,-99.99,,,-99.99,WSDL version 420,2013-01-26 22:34:00,
2013-01-26 14:39:00,64.8,48.0,29.91,NNE,23,0.0,4.0,54,-99.99,,,-99.99,WSDL version 420,2013-01-26 22:39:00,
2013-01-26 14:44:00,64.9,47.3,29.88,SE,128,3.2,4.9,52,-99.99,,,-99.99,WSDL version 420,2013-01-26 22:44:00,
2013-01-26 14:49:00,64.5,46.8,29.88,ESE,113,1.8,4.9,53,-99.99,,,-99.99,WSDL version 420,2013-01-26 22:49:00,
2013-01-26 14:54:00,64.7,47.1,29.88,ESE,113,0.0,4.9,52,-99.99,,,-99.99,WSDL version 420,2013-01-26 22:54:00,
2013-01-26 14:59:00,65.3,46.9,29.88,ESE,113,0.8,3.6,50,-99.99,,,-99.99,WSDL version 420,2013-01-26 22:59:00,
2013-01-26 15:04:00,65.6,46.9,29.88,ESE,118,3.2,5.4,52,-99.99,,,-99.99,WSDL version 420,2013-01-26 23:04:00,
2013-01-26 15:09:00,64.5,46.9,29.88,ESE,113,3.0,5.4,54,-99.99,,,-99.99,WSDL version 420,2013-01-26 23:09:00,
2013-01-26 15:14:00,63.4,47.5,29.88,East,90,1.7,4.9,57,-99.99,,,-99.99,WSDL version 420,2013-01-26 23:14:00,
2013-01-26 15:19:00,62.9,47.5,29.88,East,90,0.7,4.0,58,-99.99,,,-99.99,WSDL version 420,2013-01-26 23:19:00,
2013-01-26 15:24:00,62.8,47.5,29.88,ESE,113,2.7,4.0,57,-99.99,,,-99.99,WSDL version 420,2013-01-26 23:24:00,
2013-01-26 15:29:00,63.1,47.7,29.88,ESE,113,0.7,5.4,57,-99.99,,,-99.99,WSDL version 420,2013-01-26 23:29:00,
2013-01-26 15:34:00,63.5,47.1,29.88,ENE,68,2.6,5.4,56,-99.99,,,-99.99,WSDL version 420,2013-01-26 23:34:00,
2013-01-26 15:39:00,63.2,47.1,29.88,ENE,68,2.8,4.9,56,-99.99,,,-99.99,WSDL version 420,2013-01-26 23:39:00,
2013-01-26 15:44:00,62.4,46.9,29.88,ENE,68,2.5,4.9,58,-99.99,,,-99.99,WSDL version 420,2013-01-26 23:44:00,
2013-01-26 15:49:00,62.6,47.4,29.88,NNE,23,2.9,4.9,57,-99.99,,,-99.99,WSDL version 420,2013-01-26 23:49:00,
2013-01-26 15:54:00,63.2,47.5,29.88,NNE,23,0.5,4.5,55,-99.99,,,-99.99,WSDL version 420,2013-01-26 23:54:00,
2013-01-26 15:59:00,63.2,46.4,29.88,NE,42,3.4,5.4,55,-99.99,,,-99.99,WSDL version 420,2013-01-26 23:59:00,
2013-01-26 16:04:00,63.5,46.5,29.88,NE,45,2.5,5.4,53,-99.99,,,-99.99,WSDL version 420,2013-01-27 00:04:00,
2013-01-26 16:09:00,63.7,46.5,29.88,NNE,28,2.5,4.5,54,-99.99,,,-99.99,WSDL version 420,2013-01-27 00:09:00,
2013-01-26 16:14:00,63.4,47.4,29.88,NNE,25,4.5,6.3,59,-99.99,,,-99.99,WSDL version 420,2013-01-27 00:14:00,
2013-01-26 16:19:00,62.7,49.2,29.88,North,360,5.3,7.6,63,-99.99,,,-99.99,WSDL version 420,2013-01-27 00:19:00,
2013-01-26 16:24:00,62.8,50.0,29.88,ENE,73,1.0,7.6,62,-99.99,,,-99.99,WSDL version 420,2013-01-27 00:24:00,
2013-01-26 16:29:00,63.0,48.9,29.88,ESE,113,2.2,5.8,57,-99.99,,,-99.99,WSDL version 420,2013-01-27 00:29:00,
2013-01-26 16:34:00,63.1,48.7,29.88,ESE,113,0.8,3.6,59,-99.99,,,-99.99,WSDL version 420,2013-01-27 00:34:00,
2013-01-26 16:39:00,62.9,46.9,29.88,SE,143,0.9,4.9,52,-99.99,,,-99.99,WSDL version 420,2013-01-27 00:39:00,
2013-01-26 16:44:00,63.2,44.5,29.88,West,259,3.2,5.8,51,-99.99,,,-99.99,WSDL version 420,2013-01-27 00:44:00,
2013-01-26 16:49:00,62.8,44.9,29.88,West,270,3.1,5.8,52,-99.99,,,-99.99,WSDL version 420,2013-01-27 00:49:00,
2013-01-26 16:54:00,62.8,44.9,29.88,WSW,238,2.6,4.9,52,-99.99,,,-99.99,WSDL version 420,2013-01-27 00:54:00,
2013-01-26 16:59:00,62.4,45.4,29.85,SW,236,1.4,4.0,55,-99.99,,,-99.99,WSDL version 420,2013-01-27 00:59:00,
2013-01-26 17:04:00,61.2,48.2,29.85,NW,313,4.1,5.8,66,-99.99,,,-99.99,WSDL version 420,2013-01-27 01:04:00,
2013-01-26 17:09:00,60.1,49.7,29.85,NNW,338,3.1,5.8,70,-99.99,,,-99.99,WSDL version 420,2013-01-27 01:09:00,
2013-01-26 17:14:00,59.5,49.8,29.88,NNW,338,2.9,4.9,71,-99.99,,,-99.99,WSDL version 420,2013-01-27 01:14:00,
2013-01-26 17:19:00,59.0,49.7,29.88,NNW,338,2.6,4.0,72,-99.99,,,-99.99,WSDL version 420,2013-01-27 01:19:00,
2013-01-26 17:24:00,58.6,49.7,29.88,NNW,338,0.3,4.0,73,-99.99,,,-99.99,WSDL version 420,2013-01-27 01:24:00,
2013-01-26 17:29:00,58.3,49.8,29.88,NNW,338,0.0,3.6,74,-99.99,,,-99.99,WSDL version 420,2013-01-27 01:29:00,
2013-01-26 17:34:00,57.7,49.5,29.88,NNW,338,0.0,0.0,74,-99.99,,,-99.99,WSDL version 420,2013-01-27 01:34:00,
2013-01-26 17:39:00,57.1,49.4,29.88,NNW,338,1.8,3.1,76,-99.99,,,-99.99,WSDL version 420,2013-01-27 01:39:00,
2013-01-26 17:44:00,56.7,49.7,29.88,SW,214,2.9,3.6,78,-99.99,,,-99.99,WSDL version 420,2013-01-27 01:44:00,
2013-01-26 17:49:00,56.4,49.1,29.88,SW,225,5.1,8.1,73,-99.99,,,-99.99,WSDL version 420,2013-01-27 01:49:00,
2013-01-26 17:54:00,56.7,45.2,29.88,SSW,212,3.4,8.1,62,-99.99,,,-99.99,WSDL version 420,2013-01-27 01:54:00,
2013-01-26 17:59:00,57.2,42.5,29.88,SW,215,7.5,10.1,56,-99.99,,,-99.99,WSDL version 420,2013-01-27 01:59:00,
2013-01-26 18:04:00,57.6,41.5,29.88,SSW,210,8.5,11.0,55,-99.99,,,-99.99,WSDL version 420,2013-01-27 02:04:00,
2013-01-26 18:09:00,57.4,41.5,29.88,SW,228,9.3,13.6,56,-99.99,,,-99.99,WSDL version 420,2013-01-27 02:09:00,
2013-01-26 18:14:00,57.3,41.3,29.88,SW,233,6.6,13.6,55,-99.99,,,-99.99,WSDL version 420,2013-01-27 02:14:00,
2013-01-26 18:19:00,57.1,41.2,29.88,SW,233,8.8,11.4,55,-99.99,,,-99.99,WSDL version 420,2013-01-27 02:19:00,
2013-01-26 18:24:00,57.1,41.1,29.88,SW,233,8.5,12.8,55,-99.99,,,-99.99,WSDL version 420,2013-01-27 02:24:00,
2013-01-26 18:29:00,57.0,40.6,29.88,SSW,211,10.0,14.1,54,-99.99,,,-99.99,WSDL version 420,2013-01-27 02:29:00,
2013-01-26 18:34:00,56.9,40.5,29.88,SW,215,8.4,14.1,54,-99.99,,,-99.99,WSDL version 420,2013-01-27 02:34:00,
2013-01-26 18:39:00,56.7,40.7,29.88,SW,218,9.0,12.8,55,-99.99,,,-99.99,WSDL version 420,2013-01-27 02:39:00,
2013-01-26 18:44:00,56.4,40.7,29.88,SSW,208,6.9,12.8,56,-99.99,,,-99.99,WSDL version 420,2013-01-27 02:44:00,
2013-01-26 18:49:00,56.0,40.9,29.88,SSW,208,7.6,12.8,56,-99.99,,,-99.99,WSDL version 420,2013-01-27 02:49:00,
2013-01-26 18:54:00,55.9,40.5,29.88,SW,225,8.7,12.8,56,-99.99,,,-99.99,WSDL version 420,2013-01-27 02:54:00,
2013-01-26 18:59:00,55.9,40.1,29.88,SW,225,8.3,12.8,55,-99.99,,,-99.99,WSDL version 420,2013-01-27 02:59:00,
2013-01-26 19:04:00,55.9,39.9,29.88,SW,219,6.9,13.2,54,-99.99,,,-99.99,WSDL version 420,2013-01-27 03:04:00,
2013-01-26 19:09:00,55.9,39.5,29.88,SW,230,9.2,13.2,54,-99.99,,,-99.99,WSDL version 420,2013-01-27 03:09:00,
2013-01-26 19:14:00,55.9,39.3,29.88,WSW,238,8.4,12.8,54,-99.99,,,-99.99,WSDL version 420,2013-01-27 03:14:00,
2013-01-26 19:19:00,55.9,39.4,29.88,SW,228,8.1,12.8,54,-99.99,,,-99.99,WSDL version 420,2013-01-27 03:19:00,
2013-01-26 19:24:00,55.9,39.5,29.88,SW,231,7.9,12.8,54,-99.99,,,-99.99,WSDL version 420,2013-01-27 03:24:00,
2013-01-26 19:29:00,55.6,39.4,29.88,SW,222,10.3,15.0,54,-99.99,,,-99.99,WSDL version 420,2013-01-27 03:29:00,
2013-01-26 19:34:00,55.5,39.4,29.88,SW,225,8.6,15.0,55,-99.99,,,-99.99,WSDL version 420,2013-01-27 03:34:00,
2013-01-26 19:39:00,55.4,39.3,29.88,SW,225,10.3,15.0,54,-99.99,,,-99.99,WSDL version 420,2013-01-27 03:39:00,
2013-01-26 19:44:00,55.3,39.2,29.91,SSW,210,8.6,15.4,55,-99.99,,,-99.99,WSDL version 420,2013-01-27 03:44:00,
2013-01-26 19:49:00,55.2,39.2,29.91,SW,225,9.9,15.4,54,-99.99,,,-99.99,WSDL version 420,2013-01-27 03:49:00,
2013-01-26 19:54:00,55.2,38.9,29.91,SW,233,8.7,17.4,54,-99.99,,,-99.99,WSDL version 420,2013-01-27 03:54:00,
2013-01-26 19:59:00,55.2,38.9,29.88,SW,228,10.6,17.4,55,-99.99,,,-99.99,WSDL version 420,2013-01-27 03:59:00,
2013-01-26 20:04:00,54.9,39.1,29.88,SW,233,8.9,14.5,56,-99.99,,,-99.99,WSDL version 420,2013-01-27 04:04:00,
2013-01-26 20:09:00,54.7,39.3,29.88,SW,228,7.9,15.0,56,-99.99,,,-99.99,WSDL version 420,2013-01-27 04:09:00,
2013-01-26 20:14:00,55.0,38.9,29.91,SSW,211,10.3,17.0,54,-99.99,,,-99.99,WSDL version 420,2013-01-27 04:14:00,
2013-01-26 20:19:00,55.5,38.3,29.91,SSW,200,9.3,17.0,52,-99.99,,,-99.99,WSDL version 420,2013-01-27 04:19:00,
2013-01-26 20:24:00,55.6,38.2,29.91,SW,215,9.6,17.9,52,-99.99,,,-99.99,WSDL version 420,2013-01-27 04:24:00,
2013-01-26 20:29:00,55.4,38.2,29.91,SW,228,8.4,17.9,52,-99.99,,,-99.99,WSDL version 420,2013-01-27 04:29:00,
2013-01-26 20:34:00,55.5,37.9,29.91,SW,223,7.8,17.4,51,-99.99,,,-99.99,WSDL version 420,2013-01-27 04:34:00,
2013-01-26 20:39:00,55.6,37.8,29.91,WSW,239,8.1,17.4,51,-99.99,,,-99.99,WSDL version 420,2013-01-27 04:39:00,
2013-01-26 20:44:00,55.6,37.8,29.88,SW,219,5.6,12.3,51,-99.99,,,-99.99,WSDL version 420,2013-01-27 04:44:00,
2013-01-26 20:49:00,55.6,37.6,29.88,SW,231,5.5,15.0,50,-99.99,,,-99.99,WSDL version 420,2013-01-27 04:49:00,
2013-01-26 20:54:00,55.5,37.3,29.88,SW,220,6.2,15.0,50,-99.99,,,-99.99,WSDL version 420,2013-01-27 04:54:00,
2013-01-26 20:59:00,55.9,36.8,29.88,SW,225,6.8,12.8,48,-99.99,,,-99.99,WSDL version 420,2013-01-27 04:59:00,
2013-01-26 21:00:00,55.9,36.7,29.88,WSW,239,6.7,12.8,48,-99.99,,,-99.99,WSDL version 420,2013-01-27 05:00:00,
2013-01-26 21:03:00,55.9,36.6,29.88,SW,214,6.6,13.2,48,-99.99,,,-99.99,WSDL version 420,2013-01-27 05:03:00,
2013-01-26 21:04:00,55.9,36.5,29.88,WSW,239,5.4,13.2,48,-99.99,,,-99.99,WSDL version 420,2013-01-27 05:04:00,
2013-01-26 21:06:00,55.9,36.5,29.88,SW,235,8.4,14.5,48,-99.99,,,-99.99,WSDL version 420,2013-01-27 05:06:00,
2013-01-26 21:12:00,55.8,36.8,29.88,SW,236,6.4,14.5,48,-99.99,,,-99.99,WSDL version 420,2013-01-27 05:12:00,
2013-01-26 21:17:00,55.9,36.3,29.88,SW,236,8.5,12.3,47,-99.99,,,-99.99,WSDL version 420,2013-01-27 05:17:00,
2013-01-26 21:22:00,55.8,36.2,29.88,SSW,198,6.9,14.5,48,-99.99,,,-99.99,WSDL version 420,2013-01-27 05:22:00,
2013-01-26 21:27:00,55.7,36.2,29.88,SW,219,8.4,14.5,48,-99.99,,,-99.99,WSDL version 420,2013-01-27 05:27:00,
2013-01-26 21:32:00,55.3,36.3,29.91,SW,228,8.6,15.0,48,-99.99,,,-99.99,WSDL version 420,2013-01-27 05:32:00,
2013-01-26 21:37:00,55.4,35.9,29.91,SW,218,10.8,15.0,47,-99.99,,,-99.99,WSDL version 420,2013-01-27 05:37:00,
2013-01-26 21:42:00,55.7,35.8,29.91,SSW,211,12.9,17.4,47,-99.99,,,-99.99,WSDL version 420,2013-01-27 05:42:00,
2013-01-26 21:47:00,55.6,35.7,29.91,SW,220,10.7,17.4,47,-99.99,,,-99.99,WSDL version 420,2013-01-27 05:47:00,
2013-01-26 21:52:00,55.5,35.4,29.91,SW,231,10.0,21.9,46,-99.99,,,-99.99,WSDL version 420,2013-01-27 05:52:00,
2013-01-26 21:57:00,55.7,35.5,29.91,SW,233,9.1,21.9,47,-99.99,,,-99.99,WSDL version 420,2013-01-27 05:57:00,
2013-01-26 22:02:00,55.2,35.6,29.91,SW,219,9.2,15.9,48,-99.99,,,-99.99,WSDL version 420,2013-01-27 06:02:00,
2013-01-26 22:07:00,54.7,35.9,29.91,SW,217,6.9,15.4,49,-99.99,,,-99.99,WSDL version 420,2013-01-27 06:07:00,
2013-01-26 22:12:00,54.4,35.7,29.91,SSW,208,5.2,15.4,49,-99.99,,,-99.99,WSDL version 420,2013-01-27 06:12:00,
2013-01-26 22:17:00,54.1,35.4,29.91,SW,217,5.3,11.4,49,-99.99,,,-99.99,WSDL version 420,2013-01-27 06:17:00,
2013-01-26 22:22:00,54.0,35.5,29.91,SW,230,8.4,12.3,49,-99.99,,,-99.99,WSDL version 420,2013-01-27 06:22:00,
2013-01-26 22:27:00,54.0,35.3,29.91,SW,219,8.4,13.2,49,-99.99,,,-99.99,WSDL version 420,2013-01-27 06:27:00,
2013-01-26 22:32:00,54.1,35.3,29.91,SW,215,10.3,15.4,49,-99.99,,,-99.99,WSDL version 420,2013-01-27 06:32:00,
2013-01-26 22:37:00,53.9,35.2,29.91,SW,217,7.4,15.4,49,-99.99,,,-99.99,WSDL version 420,2013-01-27 06:37:00,
2013-01-26 22:42:00,53.4,35.3,29.91,WSW,242,6.3,12.8,51,-99.99,,,-99.99,WSDL version 420,2013-01-27 06:42:00,
2013-01-26 22:47:00,53.3,35.2,29.91,SW,228,7.9,12.8,50,-99.99,,,-99.99,WSDL version 420,2013-01-27 06:47:00,
2013-01-26 22:52:00,53.5,35.0,29.91,SW,225,6.4,17.0,49,-99.99,,,-99.99,WSDL version 420,2013-01-27 06:52:00,
2013-01-26 22:57:00,53.5,35.0,29.91,SW,235,8.6,17.0,49,-99.99,,,-99.99,WSDL version 420,2013-01-27 06:57:00,
2013-01-26 23:02:00,53.7,35.0,29.91,SW,231,8.8,15.9,49,-99.99,,,-99.99,WSDL version 420,2013-01-27 07:02:00,
2013-01-26 23:07:00,54.0,34.6,29.91,West,264,8.2,19.2,47,-99.99,,,-99.99,WSDL version 420,2013-01-27 07:07:00,
2013-01-26 23:13:00,53.8,34.7,29.91,SW,225,9.9,15.4,48,-99.99,,,-99.99,WSDL version 420,2013-01-27 07:13:00,
2013-01-26 23:18:00,53.8,34.5,29.91,SW,233,7.7,16.8,48,-99.99,,,-99.99,WSDL version 420,2013-01-27 07:18:00,
2013-01-26 23:23:00,53.5,34.5,29.91,SW,231,6.9,16.8,49,-99.99,,,-99.99,WSDL version 420,2013-01-27 07:23:00,
2013-01-26 23:28:00,53.6,34.3,29.91,WSW,240,8.7,13.2,47,-99.99,,,-99.99,WSDL version 420,2013-01-27 07:28:00,
2013-01-26 23:33:00,53.8,34.1,29.91,SSW,208,8.4,15.0,47,-99.99,,,-99.99,WSDL version 420,2013-01-27 07:33:00,
2013-01-26 23:38:00,53.8,34.0,29.91,SW,214,11.1,16.8,47,-99.99,,,-99.99,WSDL version 420,2013-01-27 07:38:00,
2013-01-26 23:43:00,53.8,34.0,29.91,SW,215,10.4,16.8,47,-99.99,,,-99.99,WSDL version 420,2013-01-27 07:43:00,
2013-01-26 23:48:00,53.5,34.1,29.91,SW,214,7.3,15.0,49,-99.99,,,-99.99,WSDL version 420,2013-01-27 07:48:00,
2013-01-26 23:53:00,52.9,34.7,29.91,SSW,205,8.9,15.4,50,-99.99,,,-99.99,WSDL version 420,2013-01-27 07:53:00,
2013-01-26 23:58:00,52.5,35.0,29.88,SSW,200,9.3,15.4,52,-99.99,,,-99.99,WSDL version 420,2013-01-27 07:58:00,